Time;durP1;ratioP1;P1;durP2;ratioP2;P2;SDS_P1;SDS_P2;PMS_P1;PMS_P2;Temp;Humidity;BMP_temperature;BMP_pressure;BME280_temperature;BME280_humidity;BME280_pressure;Samples;Min_cycle;Max_cycle;Signal;HPM_P1;HPM_P2
2022/09/07 00:00:38;;;;;;;17.80;16.50;;;;;;;;;;5037825;28;24470;-45
2022/09/07 00:03:03;;;;;;;17.37;16.07;;;;;;;;;;5036270;28;24446;-45
2022/09/07 00:05:30;;;;;;;16.63;15.23;;;;;;;;;;5042011;28;24452;-46
2022/09/07 00:07:55;;;;;;;17.23;15.93;;;;;;;;;;5031607;28;24443;-46
2022/09/07 00:10:21;;;;;;;18.40;17.00;;;;;;;;;;5034808;28;24481;-46
2022/09/07 00:12:47;;;;;;;18.53;17.13;;;;;;;;;;5037677;28;24428;-46
2022/09/07 00:15:12;;;;;;;16.55;15.35;;;;;;;;;;5036412;28;24426;-46
2022/09/07 00:17:37;;;;;;;16.60;15.30;;;;;;;;;;5041178;28;24438;-47
2022/09/07 00:20:03;;;;;;;17.00;15.77;;;;;;;;;;5040242;28;24430;-46
2022/09/07 00:22:29;;;;;;;16.50;15.30;;;;;;;;;;5039043;28;24977;-46
2022/09/07 00:24:54;;;;;;;17.98;16.55;;;;;;;;;;5041656;28;24439;-46
2022/09/07 00:27:19;;;;;;;18.53;17.13;;;;;;;;;;5034444;28;24826;-46
2022/09/07 00:29:44;;;;;;;17.92;16.60;;;;;;;;;;5046352;28;24481;-46
2022/09/07 00:32:09;;;;;;;17.30;16.10;;;;;;;;;;5040501;28;24442;-46
2022/09/07 00:34:34;;;;;;;17.52;16.23;;;;;;;;;;5038524;28;24477;-46
2022/09/07 00:37:00;;;;;;;17.25;15.95;;;;;;;;;;5036644;28;24519;-46
2022/09/07 00:39:25;;;;;;;16.50;15.20;;;;;;;;;;5032813;28;24420;-47
2022/09/07 00:41:50;;;;;;;17.52;16.23;;;;;;;;;;5031156;28;24501;-46
2022/09/07 00:44:33;;;;;;;16.33;14.95;;;;;;;;;;5040646;28;24984;-47
2022/09/07 00:46:59;;;;;;;17.83;16.50;;;;;;;;;;5035540;28;24440;-47
2022/09/07 00:49:24;;;;;;;17.57;16.27;;;;;;;;;;5039163;28;24446;-46
2022/09/07 00:51:57;;;;;;;18.30;17.00;;;;;;;;;;5040000;28;24523;-47
2022/09/07 00:54:35;;;;;;;18.52;17.23;;;;;;;;;;5034851;28;24518;-47
2022/09/07 00:57:00;;;;;;;18.15;16.55;;;;;;;;;;5037489;28;24431;-47
2022/09/07 00:59:27;;;;;;;16.87;15.47;;;;;;;;;;5033727;28;24546;-46
2022/09/07 01:01:52;;;;;;;17.92;16.52;;;;;;;;;;5041249;28;24428;-46
2022/09/07 01:04:18;;;;;;;15.97;14.67;;;;;;;;;;5037094;28;24805;-47
2022/09/07 01:06:43;;;;;;;16.42;15.23;;;;;;;;;;5041148;28;24427;-47
2022/09/07 01:09:10;;;;;;;16.38;15.07;;;;;;;;;;5041952;28;24455;-46
2022/09/07 01:11:36;;;;;;;18.08;16.67;;;;;;;;;;5035591;28;24440;-46
2022/09/07 01:14:02;;;;;;;17.40;16.00;;;;;;;;;;5038929;28;24526;-45
2022/09/07 01:16:35;;;;;;;16.52;15.27;;;;;;;;;;5033720;28;24841;-46
2022/09/07 01:19:16;;;;;;;16.30;15.00;;;;;;;;;;5035025;28;24503;-46
2022/09/07 01:22:00;;;;;;;16.73;15.40;;;;;;;;;;5033873;28;24501;-46
2022/09/07 01:24:44;;;;;;;17.50;16.10;;;;;;;;;;5033748;28;24519;-47
2022/09/07 01:27:18;;;;;;;17.05;15.65;;;;;;;;;;5035305;28;24427;-47
2022/09/07 01:29:49;;;;;;;18.90;17.50;;;;;;;;;;5028601;28;25184;-47
2022/09/07 01:32:26;;;;;;;17.10;15.80;;;;;;;;;;5039573;28;24478;-47
2022/09/07 01:34:52;;;;;;;16.05;14.85;;;;;;;;;;5036254;28;24556;-47
2022/09/07 01:37:17;;;;;;;16.88;15.38;;;;;;;;;;5039532;28;25043;-47
2022/09/07 01:39:46;;;;;;;16.50;15.40;;;;;;;;;;5039758;28;24424;-47
2022/09/07 01:42:13;;;;;;;16.08;14.82;;;;;;;;;;5040802;28;24436;-47
2022/09/07 01:44:41;;;;;;;15.55;14.43;;;;;;;;;;5035327;28;24428;-47
2022/09/07 01:47:21;;;;;;;16.63;15.33;;;;;;;;;;5036159;28;25025;-47
2022/09/07 01:49:49;;;;;;;15.18;14.07;;;;;;;;;;5034968;28;24420;-47
2022/09/07 01:52:34;;;;;;;15.30;14.10;;;;;;;;;;5040578;28;24537;-47
2022/09/07 01:55:21;;;;;;;15.95;14.75;;;;;;;;;;5037070;28;24464;-46
2022/09/07 01:57:50;;;;;;;15.50;14.30;;;;;;;;;;5033418;28;24611;-46
2022/09/07 02:00:17;;;;;;;15.90;14.60;;;;;;;;;;5030349;28;24558;-46
2022/09/07 02:02:45;;;;;;;15.63;14.43;;;;;;;;;;5036294;28;24424;-46
2022/09/07 02:05:14;;;;;;;17.17;15.77;;;;;;;;;;5039408;28;24491;-46
2022/09/07 02:08:00;;;;;;;16.60;15.40;;;;;;;;;;5037670;28;24449;-46
2022/09/07 02:10:33;;;;;;;17.25;15.95;;;;;;;;;;5036778;28;24436;-45
2022/09/07 02:13:17;;;;;;;16.90;15.50;;;;;;;;;;5035340;28;24439;-46
2022/09/07 02:15:48;;;;;;;16.17;14.97;;;;;;;;;;5034557;28;24506;-46
2022/09/07 02:18:13;;;;;;;15.02;13.82;;;;;;;;;;5040074;28;24505;-46
2022/09/07 02:20:40;;;;;;;16.77;15.57;;;;;;;;;;5039031;28;25037;-46
2022/09/07 02:23:10;;;;;;;16.50;15.20;;;;;;;;;;5042022;28;24508;-46
2022/09/07 02:25:36;;;;;;;15.70;14.50;;;;;;;;;;5045748;28;24564;-46
2022/09/07 02:28:16;;;;;;;15.80;14.60;;;;;;;;;;5035354;28;24431;-46
2022/09/07 02:30:41;;;;;;;15.45;14.35;;;;;;;;;;5039525;28;24996;-47
2022/09/07 02:33:06;;;;;;;15.70;14.50;;;;;;;;;;5038667;28;24434;-46
2022/09/07 02:35:32;;;;;;;16.40;15.20;;;;;;;;;;5027862;28;24735;-46
2022/09/07 02:37:58;;;;;;;16.27;15.07;;;;;;;;;;5035121;28;24596;-45
2022/09/07 02:40:24;;;;;;;15.65;14.38;;;;;;;;;;5031859;28;24491;-45
2022/09/07 02:42:49;;;;;;;16.30;15.10;;;;;;;;;;5040904;28;25070;-45
2022/09/07 02:45:15;;;;;;;16.00;14.80;;;;;;;;;;5032715;28;24423;-46
2022/09/07 02:47:58;;;;;;;15.77;14.57;;;;;;;;;;5028325;28;24434;-45
2022/09/07 02:50:29;;;;;;;16.58;15.18;;;;;;;;;;5034764;28;24454;-45
2022/09/07 02:52:54;;;;;;;15.35;14.15;;;;;;;;;;5040956;28;24513;-46
2022/09/07 02:55:39;;;;;;;14.32;13.23;;;;;;;;;;5032891;28;24431;-46
2022/09/07 02:58:10;;;;;;;16.40;15.20;;;;;;;;;;5031429;28;25461;-47
2022/09/07 03:01:02;;;;;;;15.20;14.02;;;;;;;;;;5030819;28;24511;-46
2022/09/07 03:03:27;;;;;;;16.17;14.88;;;;;;;;;;5032998;28;24472;-46
2022/09/07 03:05:55;;;;;;;15.70;14.50;;;;;;;;;;5030555;28;24462;-46
2022/09/07 03:08:23;;;;;;;15.88;14.68;;;;;;;;;;5034020;28;24438;-47
2022/09/07 03:10:48;;;;;;;15.57;14.27;;;;;;;;;;5031776;28;24538;-47
2022/09/07 03:13:21;;;;;;;16.40;15.20;;;;;;;;;;5032531;28;24526;-46
2022/09/07 03:15:46;;;;;;;16.63;15.43;;;;;;;;;;5034840;28;24849;-48
2022/09/07 03:18:12;;;;;;;15.90;14.60;;;;;;;;;;5041813;28;24983;-47
2022/09/07 03:20:37;;;;;;;16.30;15.10;;;;;;;;;;5034544;28;24451;-47
2022/09/07 03:23:02;;;;;;;16.92;15.52;;;;;;;;;;5034907;28;24810;-47
2022/09/07 03:25:27;;;;;;;16.10;14.82;;;;;;;;;;5040214;28;24965;-47
2022/09/07 03:27:52;;;;;;;15.88;14.68;;;;;;;;;;5036152;28;24470;-46
2022/09/07 03:30:17;;;;;;;16.60;15.30;;;;;;;;;;5035244;28;24519;-45
2022/09/07 03:32:43;;;;;;;16.30;15.00;;;;;;;;;;5038579;28;24608;-46
2022/09/07 03:35:08;;;;;;;16.70;15.40;;;;;;;;;;5032674;28;24474;-45
2022/09/07 03:37:36;;;;;;;18.47;17.07;;;;;;;;;;5039940;28;24431;-47
2022/09/07 03:40:02;;;;;;;18.05;16.65;;;;;;;;;;5036723;28;24434;-47
2022/09/07 03:42:27;;;;;;;19.65;18.15;;;;;;;;;;5031413;28;24415;-46
2022/09/07 03:44:53;;;;;;;16.73;15.40;;;;;;;;;;5032782;28;24824;-47
2022/09/07 03:47:18;;;;;;;16.02;14.82;;;;;;;;;;5038569;28;24425;-46
2022/09/07 03:49:43;;;;;;;15.57;14.37;;;;;;;;;;5038470;28;24446;-46
2022/09/07 03:52:08;;;;;;;16.52;15.32;;;;;;;;;;5040640;28;24529;-47
2022/09/07 03:54:34;;;;;;;16.90;15.60;;;;;;;;;;5041797;28;24526;-47
2022/09/07 03:56:59;;;;;;;16.33;15.13;;;;;;;;;;5044372;28;24424;-46
2022/09/07 03:59:24;;;;;;;17.40;16.10;;;;;;;;;;5032619;28;24945;-46
2022/09/07 04:01:50;;;;;;;18.00;16.30;;;;;;;;;;5035447;28;24478;-46
2022/09/07 04:04:15;;;;;;;17.15;15.75;;;;;;;;;;5038106;28;24431;-46
2022/09/07 04:06:40;;;;;;;16.70;15.40;;;;;;;;;;5044768;28;24442;-46
2022/09/07 04:09:13;;;;;;;17.00;15.70;;;;;;;;;;5045826;28;24427;-47
2022/09/07 04:11:41;;;;;;;18.60;17.00;;;;;;;;;;5037957;28;25508;-47
2022/09/07 04:14:07;;;;;;;16.00;14.80;;;;;;;;;;5032706;28;24428;-46
2022/09/07 04:16:32;;;;;;;16.55;15.32;;;;;;;;;;5035740;28;24478;-47
2022/09/07 04:18:58;;;;;;;15.38;14.18;;;;;;;;;;5036671;28;24420;-47
2022/09/07 04:21:25;;;;;;;15.80;14.60;;;;;;;;;;5040028;28;24454;-46
2022/09/07 04:23:50;;;;;;;17.77;16.38;;;;;;;;;;5032860;28;25003;-46
2022/09/07 04:26:20;;;;;;;17.13;15.75;;;;;;;;;;5030371;28;24419;-47
2022/09/07 04:28:45;;;;;;;16.07;14.87;;;;;;;;;;5035524;28;24431;-47
2022/09/07 04:31:11;;;;;;;16.50;15.13;;;;;;;;;;5043673;28;24422;-47
2022/09/07 04:33:36;;;;;;;15.90;14.70;;;;;;;;;;5039340;28;24426;-46
2022/09/07 04:36:02;;;;;;;16.50;15.20;;;;;;;;;;5041747;28;24925;-47
2022/09/07 04:38:27;;;;;;;17.48;15.98;;;;;;;;;;5034607;28;25073;-46
2022/09/07 04:41:07;;;;;;;15.77;14.47;;;;;;;;;;5046555;28;24557;-46
2022/09/07 04:43:32;;;;;;;16.00;14.70;;;;;;;;;;5035035;28;24957;-46
2022/09/07 04:46:00;;;;;;;15.73;14.33;;;;;;;;;;5039682;28;24438;-45
2022/09/07 04:48:25;;;;;;;16.67;15.27;;;;;;;;;;5033715;28;24451;-46
2022/09/07 04:50:51;;;;;;;15.27;14.07;;;;;;;;;;5028604;28;24950;-46
2022/09/07 04:53:16;;;;;;;15.80;14.60;;;;;;;;;;5030888;28;24431;-46
2022/09/07 04:55:41;;;;;;;16.13;14.83;;;;;;;;;;5030443;28;24427;-46
2022/09/07 04:58:06;;;;;;;15.47;14.17;;;;;;;;;;5031610;28;24490;-45
2022/09/07 05:00:32;;;;;;;14.55;13.45;;;;;;;;;;5037817;28;24475;-45
2022/09/07 05:02:57;;;;;;;15.73;14.53;;;;;;;;;;5029668;28;24425;-46
2022/09/07 05:05:22;;;;;;;15.20;13.93;;;;;;;;;;5029194;28;24569;-47
2022/09/07 05:07:47;;;;;;;16.45;15.13;;;;;;;;;;5032948;28;24539;-46
2022/09/07 05:10:12;;;;;;;14.57;13.37;;;;;;;;;;5044429;28;24534;-47
2022/09/07 05:12:38;;;;;;;15.93;14.63;;;;;;;;;;5027120;28;24544;-47
2022/09/07 05:15:03;;;;;;;16.30;14.90;;;;;;;;;;5032807;28;24432;-46
2022/09/07 05:17:29;;;;;;;15.17;13.97;;;;;;;;;;5032339;28;24453;-47
2022/09/07 05:19:55;;;;;;;15.30;14.10;;;;;;;;;;5028629;28;25197;-47
2022/09/07 05:22:21;;;;;;;15.73;14.53;;;;;;;;;;5036457;28;24446;-47
2022/09/07 05:24:46;;;;;;;15.30;14.10;;;;;;;;;;5030954;28;24434;-47
2022/09/07 05:27:11;;;;;;;14.83;13.73;;;;;;;;;;5035911;28;24475;-47
2022/09/07 05:29:36;;;;;;;15.80;14.70;;;;;;;;;;5041512;28;24514;-46
2022/09/07 05:32:01;;;;;;;15.97;14.50;;;;;;;;;;5047628;28;24937;-46
2022/09/07 05:34:27;;;;;;;15.80;14.60;;;;;;;;;;5035019;28;24479;-47
2022/09/07 05:36:52;;;;;;;15.63;14.52;;;;;;;;;;5039630;28;24442;-46
2022/09/07 05:39:19;;;;;;;14.88;13.75;;;;;;;;;;5037274;28;24485;-47
2022/09/07 05:41:44;;;;;;;14.90;13.80;;;;;;;;;;5031036;28;24842;-48
2022/09/07 05:44:10;;;;;;;15.02;13.82;;;;;;;;;;5039815;28;25000;-48
2022/09/07 05:46:35;;;;;;;16.00;14.80;;;;;;;;;;5040373;28;24473;-47
2022/09/07 05:49:02;;;;;;;14.60;13.30;;;;;;;;;;5045122;28;24427;-47
2022/09/07 05:51:27;;;;;;;14.65;13.45;;;;;;;;;;5033444;28;25203;-47
2022/09/07 05:53:52;;;;;;;14.20;13.10;;;;;;;;;;5032018;28;24442;-47
2022/09/07 05:56:17;;;;;;;15.23;14.13;;;;;;;;;;5043966;28;24804;-47
2022/09/07 05:58:46;;;;;;;14.90;13.80;;;;;;;;;;5045284;28;24399;-47
2022/09/07 06:01:12;;;;;;;13.57;12.57;;;;;;;;;;5044828;28;24992;-47
2022/09/07 06:03:38;;;;;;;14.10;12.97;;;;;;;;;;5040316;28;24424;-46
2022/09/07 06:06:04;;;;;;;13.50;12.30;;;;;;;;;;5028433;28;24427;-46
2022/09/07 06:08:31;;;;;;;12.73;11.73;;;;;;;;;;5039450;28;24482;-46
2022/09/07 06:10:56;;;;;;;14.30;12.93;;;;;;;;;;5043205;28;24435;-46
2022/09/07 06:13:21;;;;;;;13.80;12.60;;;;;;;;;;5043378;28;25045;-47
2022/09/07 06:15:46;;;;;;;12.85;11.85;;;;;;;;;;5044490;28;24605;-47
2022/09/07 06:18:11;;;;;;;13.30;12.20;;;;;;;;;;5040588;28;24502;-47
2022/09/07 06:20:36;;;;;;;13.10;12.00;;;;;;;;;;5041307;28;24664;-47
2022/09/07 06:23:01;;;;;;;14.37;13.17;;;;;;;;;;5047190;28;24427;-46
2022/09/07 06:25:27;;;;;;;11.85;10.85;;;;;;;;;;5045061;28;24984;-47
2022/09/07 06:27:52;;;;;;;12.80;11.90;;;;;;;;;;5038295;28;24434;-47
2022/09/07 06:30:18;;;;;;;12.07;11.00;;;;;;;;;;5028485;28;24457;-46
2022/09/07 06:32:43;;;;;;;13.60;12.30;;;;;;;;;;5044356;28;24494;-46
2022/09/07 06:35:08;;;;;;;13.30;12.00;;;;;;;;;;5029142;28;24497;-47
2022/09/07 06:37:33;;;;;;;12.83;11.80;;;;;;;;;;5039041;28;24991;-47
2022/09/07 06:39:59;;;;;;;14.38;13.18;;;;;;;;;;5040811;28;24770;-47
2022/09/07 06:42:24;;;;;;;12.90;11.90;;;;;;;;;;5030445;28;25208;-47
2022/09/07 06:44:49;;;;;;;13.73;12.60;;;;;;;;;;5034232;28;24477;-46
2022/09/07 06:47:14;;;;;;;14.77;13.50;;;;;;;;;;5047111;28;24491;-47
2022/09/07 06:49:39;;;;;;;12.47;11.47;;;;;;;;;;5041351;28;24430;-47
2022/09/07 06:52:05;;;;;;;12.82;11.77;;;;;;;;;;5040785;28;25033;-47
2022/09/07 06:54:30;;;;;;;13.07;12.07;;;;;;;;;;5036235;28;24509;-46
2022/09/07 06:56:55;;;;;;;13.23;12.23;;;;;;;;;;5035142;28;24509;-47
2022/09/07 06:59:20;;;;;;;11.55;10.65;;;;;;;;;;5039593;28;24481;-48
2022/09/07 07:01:45;;;;;;;12.65;11.75;;;;;;;;;;5029202;28;24531;-46
2022/09/07 07:04:11;;;;;;;13.13;11.93;;;;;;;;;;5038540;28;25108;-46
2022/09/07 07:06:36;;;;;;;13.77;12.67;;;;;;;;;;5034083;28;24420;-47
2022/09/07 07:09:03;;;;;;;14.15;12.95;;;;;;;;;;5031116;28;24423;-46
2022/09/07 07:11:30;;;;;;;14.15;12.95;;;;;;;;;;5037854;28;24993;-47
2022/09/07 07:13:55;;;;;;;12.48;11.48;;;;;;;;;;5041451;28;24447;-46
2022/09/07 07:16:20;;;;;;;14.50;13.20;;;;;;;;;;5029343;28;24948;-46
2022/09/07 07:18:47;;;;;;;15.33;13.93;;;;;;;;;;5039729;28;24473;-47
2022/09/07 07:21:13;;;;;;;14.20;13.00;;;;;;;;;;5043857;28;24527;-46
2022/09/07 07:23:39;;;;;;;12.73;11.73;;;;;;;;;;5045585;28;24556;-46
2022/09/07 07:26:05;;;;;;;12.33;11.30;;;;;;;;;;5036555;28;24535;-46
2022/09/07 07:28:31;;;;;;;13.70;12.32;;;;;;;;;;5048081;28;24931;-46
2022/09/07 07:30:57;;;;;;;13.60;12.50;;;;;;;;;;5048848;28;25016;-48
2022/09/07 07:33:23;;;;;;;12.93;11.83;;;;;;;;;;5039864;28;24996;-45
2022/09/07 07:35:48;;;;;;;13.70;12.60;;;;;;;;;;5041084;28;24431;-46
2022/09/07 07:38:13;;;;;;;15.00;13.70;;;;;;;;;;5050556;28;25055;-46
2022/09/07 07:40:38;;;;;;;14.63;13.43;;;;;;;;;;5049185;28;24423;-46
2022/09/07 07:43:03;;;;;;;13.45;12.25;;;;;;;;;;5050527;28;24750;-46
2022/09/07 07:45:29;;;;;;;14.07;12.98;;;;;;;;;;5048649;28;24485;-46
2022/09/07 07:47:54;;;;;;;13.47;12.27;;;;;;;;;;5049851;28;24442;-46
2022/09/07 07:50:19;;;;;;;14.63;13.43;;;;;;;;;;5034642;28;24515;-46
2022/09/07 07:52:44;;;;;;;13.90;12.80;;;;;;;;;;5050602;28;24483;-46
2022/09/07 07:55:09;;;;;;;12.63;11.52;;;;;;;;;;5050747;28;24913;-46
2022/09/07 07:57:35;;;;;;;12.90;11.90;;;;;;;;;;5049493;28;24575;-46
2022/09/07 08:00:00;;;;;;;12.70;11.60;;;;;;;;;;5050479;28;24928;-46
2022/09/07 08:02:25;;;;;;;14.13;12.93;;;;;;;;;;5050952;28;24499;-47
2022/09/07 08:04:51;;;;;;;12.47;11.43;;;;;;;;;;5048305;28;24447;-46
2022/09/07 08:07:16;;;;;;;13.00;11.90;;;;;;;;;;5044583;28;25015;-47
2022/09/07 08:09:43;;;;;;;11.60;10.60;;;;;;;;;;5050099;28;24465;-48
2022/09/07 08:12:10;;;;;;;11.20;10.30;;;;;;;;;;5048345;28;24434;-47
2022/09/07 08:14:39;;;;;;;13.60;12.40;;;;;;;;;;5047722;28;24431;-47
2022/09/07 08:17:04;;;;;;;15.00;13.60;;;;;;;;;;5049383;28;24979;-47
2022/09/07 08:19:29;;;;;;;13.03;11.93;;;;;;;;;;5048670;28;24423;-47
2022/09/07 08:21:54;;;;;;;13.37;12.17;;;;;;;;;;5041131;28;24454;-47
2022/09/07 08:24:20;;;;;;;13.63;12.52;;;;;;;;;;5047414;28;24997;-47
2022/09/07 08:26:46;;;;;;;13.90;12.70;;;;;;;;;;5049031;28;24598;-47
2022/09/07 08:29:11;;;;;;;13.80;12.52;;;;;;;;;;5043291;28;24428;-46
2022/09/07 08:31:36;;;;;;;13.73;12.73;;;;;;;;;;5032636;28;24446;-47
2022/09/07 08:34:02;;;;;;;13.40;12.30;;;;;;;;;;5042841;28;24485;-47
2022/09/07 08:36:27;;;;;;;11.80;10.80;;;;;;;;;;5043680;28;24423;-47
2022/09/07 08:38:54;;;;;;;12.73;11.73;;;;;;;;;;5047762;28;24419;-47
2022/09/07 08:41:28;;;;;;;13.93;12.83;;;;;;;;;;5049342;28;24437;-46
2022/09/07 08:44:05;;;;;;;14.10;12.90;;;;;;;;;;5049169;28;24941;-46
2022/09/07 08:46:39;;;;;;;14.17;13.07;;;;;;;;;;5036322;28;24499;-47
2022/09/07 08:49:05;;;;;;;15.50;14.13;;;;;;;;;;5029592;28;24399;-47
2022/09/07 08:51:37;;;;;;;15.05;13.88;;;;;;;;;;5033594;28;24430;-47
2022/09/07 08:54:03;;;;;;;15.85;14.38;;;;;;;;;;5048940;28;25047;-47
2022/09/07 08:56:30;;;;;;;16.10;14.70;;;;;;;;;;5041774;28;24509;-46
2022/09/07 08:58:55;;;;;;;14.02;12.73;;;;;;;;;;5029129;28;24485;-47
2022/09/07 09:01:31;;;;;;;14.93;13.67;;;;;;;;;;5029548;28;24744;-46
2022/09/07 09:03:56;;;;;;;14.73;13.45;;;;;;;;;;5036879;28;24485;-46
2022/09/07 09:06:21;;;;;;;14.70;13.50;;;;;;;;;;5030402;28;24415;-46
2022/09/07 09:09:00;;;;;;;14.50;13.38;;;;;;;;;;5049288;28;24837;-47
2022/09/07 09:11:42;;;;;;;14.32;13.23;;;;;;;;;;5049203;28;24494;-47
2022/09/07 09:14:22;;;;;;;14.35;13.15;;;;;;;;;;5046342;28;24407;-46
2022/09/07 09:16:52;;;;;;;13.90;12.75;;;;;;;;;;5039122;28;24427;-46
2022/09/07 09:19:18;;;;;;;14.60;13.30;;;;;;;;;;5048757;28;24379;-46
2022/09/07 09:21:43;;;;;;;13.73;12.63;;;;;;;;;;5036519;28;24474;-47
2022/09/07 09:24:11;;;;;;;14.00;12.80;;;;;;;;;;5048603;28;24751;-46
2022/09/07 09:26:38;;;;;;;13.10;12.00;;;;;;;;;;5046444;28;24415;-47
2022/09/07 09:29:14;;;;;;;13.50;12.50;;;;;;;;;;5036205;28;24438;-51
2022/09/07 09:31:39;;;;;;;14.50;13.20;;;;;;;;;;5047253;28;24423;-46
2022/09/07 09:34:04;;;;;;;13.40;12.30;;;;;;;;;;5048281;28;24431;-47
2022/09/07 09:36:33;;;;;;;14.30;13.10;;;;;;;;;;5048463;28;24407;-47
2022/09/07 09:38:58;;;;;;;13.13;12.23;;;;;;;;;;5046746;28;24419;-47
2022/09/07 09:41:23;;;;;;;13.05;12.13;;;;;;;;;;5048643;28;24764;-46
2022/09/07 09:43:53;;;;;;;13.75;12.75;;;;;;;;;;5043022;28;24945;-46
2022/09/07 09:46:21;;;;;;;13.00;12.00;;;;;;;;;;5028450;28;24511;-46
2022/09/07 09:48:56;;;;;;;12.43;11.52;;;;;;;;;;5028226;28;24388;-47
2022/09/07 09:51:23;;;;;;;13.37;12.10;;;;;;;;;;5029623;28;24431;-46
2022/09/07 09:53:51;;;;;;;12.48;11.50;;;;;;;;;;5036742;28;24427;-46
2022/09/07 09:56:17;;;;;;;12.30;11.50;;;;;;;;;;5028189;28;24396;-47
2022/09/07 09:58:45;;;;;;;13.07;12.07;;;;;;;;;;5025986;28;24450;-46
2022/09/07 10:01:22;;;;;;;12.30;11.30;;;;;;;;;;5034199;28;24410;-47
2022/09/07 10:03:47;;;;;;;11.90;11.10;;;;;;;;;;5045745;28;24961;-47
2022/09/07 10:06:16;;;;;;;12.43;11.63;;;;;;;;;;5046094;28;24984;-46
2022/09/07 10:08:55;;;;;;;12.38;11.38;;;;;;;;;;5046692;28;24514;-47
2022/09/07 10:11:37;;;;;;;12.90;11.90;;;;;;;;;;5047456;28;24429;-46
2022/09/07 10:14:03;;;;;;;12.05;11.25;;;;;;;;;;5048047;28;24839;-47
2022/09/07 10:16:36;;;;;;;12.70;11.73;;;;;;;;;;5044044;28;24965;-47
2022/09/07 10:19:02;;;;;;;12.43;11.60;;;;;;;;;;5027494;28;24423;-47
2022/09/07 10:21:28;;;;;;;11.77;10.77;;;;;;;;;;5029522;28;24940;-48
2022/09/07 10:23:56;;;;;;;11.90;11.17;;;;;;;;;;5039756;28;24419;-46
2022/09/07 10:26:26;;;;;;;11.17;10.27;;;;;;;;;;5047091;28;24470;-47
2022/09/07 10:29:11;;;;;;;12.05;11.15;;;;;;;;;;5029638;28;24442;-46
2022/09/07 10:32:03;;;;;;;12.27;11.27;;;;;;;;;;5044263;28;24453;-46
2022/09/07 10:34:34;;;;;;;11.90;11.10;;;;;;;;;;5046245;28;24435;-46
2022/09/07 10:36:59;;;;;;;12.47;11.47;;;;;;;;;;5036131;28;24462;-46
2022/09/07 10:39:26;;;;;;;11.05;10.35;;;;;;;;;;5041019;28;24443;-46
2022/09/07 10:42:10;;;;;;;11.65;10.85;;;;;;;;;;5047310;28;24489;-46
2022/09/07 10:45:02;;;;;;;11.52;10.63;;;;;;;;;;5046085;28;24762;-47
2022/09/07 10:47:48;;;;;;;12.43;11.43;;;;;;;;;;5026181;28;24453;-47
2022/09/07 10:50:26;;;;;;;12.40;11.50;;;;;;;;;;5027080;28;24404;-47
2022/09/07 10:53:14;;;;;;;12.20;11.30;;;;;;;;;;5027009;28;24399;-46
2022/09/07 10:55:41;;;;;;;11.30;10.50;;;;;;;;;;5029306;28;24466;-47
2022/09/07 10:58:14;;;;;;;11.77;10.95;;;;;;;;;;5024864;28;24996;-47
2022/09/07 11:00:45;;;;;;;12.05;11.15;;;;;;;;;;5040975;28;24906;-47
2022/09/07 11:03:11;;;;;;;11.93;11.02;;;;;;;;;;5046104;28;24498;-46
2022/09/07 11:05:55;;;;;;;12.00;11.20;;;;;;;;;;5047209;28;24491;-48
2022/09/07 11:08:20;;;;;;;12.77;11.77;;;;;;;;;;5028287;28;24991;-47
2022/09/07 11:10:50;;;;;;;12.83;11.90;;;;;;;;;;5047017;28;24408;-47
2022/09/07 11:13:21;;;;;;;13.40;12.10;;;;;;;;;;5045079;28;24506;-47
2022/09/07 11:15:51;;;;;;;12.10;11.20;;;;;;;;;;5046949;28;24979;-48
2022/09/07 11:18:22;;;;;;;13.32;12.18;;;;;;;;;;5031457;28;24523;-47
2022/09/07 11:20:53;;;;;;;13.40;12.40;;;;;;;;;;5041880;28;24410;-46
2022/09/07 11:23:27;;;;;;;13.10;12.10;;;;;;;;;;5045663;28;24922;-47
2022/09/07 11:25:56;;;;;;;11.35;10.50;;;;;;;;;;5035303;28;24446;-46
2022/09/07 11:28:40;;;;;;;11.88;10.88;;;;;;;;;;5044419;28;24450;-47
2022/09/07 11:31:15;;;;;;;11.35;10.50;;;;;;;;;;5046807;28;24422;-46
2022/09/07 11:33:48;;;;;;;11.00;10.20;;;;;;;;;;5045072;28;25050;-47
2022/09/07 11:36:16;;;;;;;11.00;10.20;;;;;;;;;;5045551;28;24778;-46
2022/09/07 11:39:03;;;;;;;11.50;10.60;;;;;;;;;;5045253;28;24466;-46
2022/09/07 11:41:29;;;;;;;11.60;10.70;;;;;;;;;;5046761;28;24514;-46
2022/09/07 11:43:54;;;;;;;11.40;10.70;;;;;;;;;;5046214;28;25193;-46
2022/09/07 11:46:39;;;;;;;11.27;10.43;;;;;;;;;;5045477;28;25058;-46
2022/09/07 11:49:10;;;;;;;11.50;10.60;;;;;;;;;;5046323;28;24395;-46
2022/09/07 11:51:40;;;;;;;11.30;10.40;;;;;;;;;;5039565;28;24423;-47
2022/09/07 11:54:26;;;;;;;11.37;10.57;;;;;;;;;;5026607;28;24529;-47
2022/09/07 11:56:55;;;;;;;11.52;10.73;;;;;;;;;;5026969;28;24476;-47
2022/09/07 11:59:29;;;;;;;11.70;10.80;;;;;;;;;;5040860;28;24399;-47
2022/09/07 12:01:57;;;;;;;10.77;9.98;;;;;;;;;;5046872;28;24547;-47
2022/09/07 12:04:26;;;;;;;11.93;11.02;;;;;;;;;;5046249;28;24752;-46
2022/09/07 12:07:03;;;;;;;12.05;11.15;;;;;;;;;;5038404;28;24575;-46
2022/09/07 12:09:39;;;;;;;11.70;10.70;;;;;;;;;;5035449;28;24682;-47
2022/09/07 12:12:15;;;;;;;10.40;9.60;;;;;;;;;;5044905;28;24423;-47
2022/09/07 12:14:46;;;;;;;11.23;10.32;;;;;;;;;;5047947;28;24450;-47
2022/09/07 12:17:17;;;;;;;12.30;11.40;;;;;;;;;;5040871;28;24479;-46
2022/09/07 12:19:43;;;;;;;11.13;10.20;;;;;;;;;;5036038;28;24506;-47
2022/09/07 12:22:19;;;;;;;11.07;10.17;;;;;;;;;;5048195;28;24542;-46
2022/09/07 12:24:47;;;;;;;10.10;9.40;;;;;;;;;;5038671;28;24867;-46
2022/09/07 12:27:18;;;;;;;10.40;9.70;;;;;;;;;;5029588;28;24533;-50
2022/09/07 12:29:43;;;;;;;12.02;11.02;;;;;;;;;;5029683;28;24396;-47
2022/09/07 12:32:09;;;;;;;11.17;10.33;;;;;;;;;;5030087;28;24419;-47
2022/09/07 12:34:34;;;;;;;10.60;9.90;;;;;;;;;;5033240;28;24726;-47
2022/09/07 12:37:00;;;;;;;11.10;10.10;;;;;;;;;;5039025;28;24573;-47
2022/09/07 12:39:31;;;;;;;11.90;11.00;;;;;;;;;;5046153;28;24431;-48
2022/09/07 12:42:05;;;;;;;11.52;10.63;;;;;;;;;;5049276;28;24414;-47
2022/09/07 12:44:34;;;;;;;11.13;10.27;;;;;;;;;;5032185;28;24420;-46
2022/09/07 12:47:19;;;;;;;11.05;10.25;;;;;;;;;;5030798;28;24438;-47
2022/09/07 12:49:47;;;;;;;12.70;11.40;;;;;;;;;;5028955;28;24419;-47
2022/09/07 12:52:19;;;;;;;13.00;12.07;;;;;;;;;;5031217;28;24997;-47
2022/09/07 12:54:47;;;;;;;11.63;10.82;;;;;;;;;;5042439;28;24600;-46
2022/09/07 12:57:20;;;;;;;12.20;11.30;;;;;;;;;;5047276;28;24487;-46
2022/09/07 13:00:00;;;;;;;12.00;11.20;;;;;;;;;;5028793;28;24420;-47
2022/09/07 13:02:25;;;;;;;12.07;11.05;;;;;;;;;;5029267;28;24431;-46
2022/09/07 13:05:03;;;;;;;12.50;11.65;;;;;;;;;;5048705;28;24395;-47
2022/09/07 13:07:45;;;;;;;11.20;10.40;;;;;;;;;;5040343;28;24455;-47
2022/09/07 13:10:29;;;;;;;11.80;10.90;;;;;;;;;;5037737;28;24459;-47
2022/09/07 13:12:58;;;;;;;12.70;11.70;;;;;;;;;;5047461;28;24484;-47
2022/09/07 13:15:34;;;;;;;12.07;11.07;;;;;;;;;;5028972;28;24403;-47
2022/09/07 13:18:01;;;;;;;13.10;12.10;;;;;;;;;;5033411;28;24427;-46
2022/09/07 13:20:30;;;;;;;13.80;12.70;;;;;;;;;;5029200;28;24450;-47
2022/09/07 13:23:05;;;;;;;12.37;11.47;;;;;;;;;;5030227;28;27335;-46
2022/09/07 13:25:36;;;;;;;13.13;12.23;;;;;;;;;;5035741;28;25045;-45
2022/09/07 13:28:12;;;;;;;12.85;11.85;;;;;;;;;;5042468;28;25036;-46
2022/09/07 13:30:44;;;;;;;13.60;12.50;;;;;;;;;;5043732;28;24865;-47
2022/09/07 13:33:24;;;;;;;14.30;13.20;;;;;;;;;;5037179;28;24514;-48
2022/09/07 13:36:08;;;;;;;14.50;13.40;;;;;;;;;;5046592;28;24451;-48
2022/09/07 13:38:34;;;;;;;15.70;14.40;;;;;;;;;;5032837;28;25313;-48
2022/09/07 13:41:04;;;;;;;15.20;14.10;;;;;;;;;;5040340;28;24439;-47
2022/09/07 13:43:29;;;;;;;15.15;14.05;;;;;;;;;;5030738;28;24475;-47
2022/09/07 13:45:54;;;;;;;15.93;14.63;;;;;;;;;;5041543;28;25463;-48
2022/09/07 13:48:32;;;;;;;16.55;15.25;;;;;;;;;;5036818;28;24518;-47
2022/09/07 13:51:03;;;;;;;16.53;15.20;;;;;;;;;;5036547;28;24430;-45
2022/09/07 13:53:48;;;;;;;14.93;13.73;;;;;;;;;;5035840;28;25187;-46
2022/09/07 13:56:32;;;;;;;15.27;13.98;;;;;;;;;;5036302;28;24477;-46
2022/09/07 13:58:57;;;;;;;14.38;13.18;;;;;;;;;;5033632;28;24471;-47
2022/09/07 14:01:26;;;;;;;14.70;13.50;;;;;;;;;;5030295;28;24493;-47
2022/09/07 14:04:14;;;;;;;14.38;13.18;;;;;;;;;;5036945;28;24422;-46
2022/09/07 14:06:40;;;;;;;14.50;13.30;;;;;;;;;;5034491;28;24451;-47
2022/09/07 14:09:12;;;;;;;14.57;13.37;;;;;;;;;;5035661;28;24892;-46
2022/09/07 14:11:43;;;;;;;15.02;13.73;;;;;;;;;;5033534;28;24412;-46
2022/09/07 14:14:11;;;;;;;14.77;13.52;;;;;;;;;;5038642;28;24485;-47
2022/09/07 14:16:37;;;;;;;13.30;12.30;;;;;;;;;;5032850;28;24502;-48
2022/09/07 14:19:08;;;;;;;14.30;13.20;;;;;;;;;;5041058;28;24569;-48
2022/09/07 14:21:33;;;;;;;14.07;12.80;;;;;;;;;;5046763;28;24433;-49
2022/09/07 14:24:02;;;;;;;13.93;12.88;;;;;;;;;;5036210;28;24519;-49
2022/09/07 14:26:28;;;;;;;13.55;12.35;;;;;;;;;;5028518;28;24442;-49